ASA730 MMPR-KLAX
Flight info
| Callsign | ASA730 |
|---|---|
| Flight time | 2h 39m |
| Altitude | 38000 |
| Route | BOBDI1A BOBDI UT4 LMM UT8 PPE J93 ASUTA DCT AMMOR OLAAA2 |
| Aircraft | B38M/M-SDE1FGHILORVWXY/HB1 |
Departure
| Time | 2026-05-06 16:56 |
|---|---|
| Airport | Puerto Vallarta International Airport (MMPR) |
Arrival
| Time | 2026-05-06 19:36 |
|---|---|
| Airport | Los Angeles International Airport (KLAX) |
| Time | Latitude | Longitude | Altitude | Speed | Heading |
|---|---|---|---|---|---|
| 2026-05-06 16:20 | 20.67948 | -105.24700 | 31 ft | 0 kts | 47° |
| 2026-05-06 16:47 | 20.67940 | -105.24709 | 31 ft | 2 kts | 46° |
| 2026-05-06 16:48 | 20.67929 | -105.24722 | 31 ft | 3 kts | 48° |
| 2026-05-06 16:48 | 20.67917 | -105.24737 | 31 ft | 2 kts | 46° |
| 2026-05-06 16:48 | 20.67907 | -105.24742 | 31 ft | 2 kts | 340° |
| 2026-05-06 16:48 | 20.67897 | -105.24736 | 31 ft | 3 kts | 317° |
| 2026-05-06 16:49 | 20.67916 | -105.24755 | 31 ft | 4 kts | 316° |
| 2026-05-06 16:49 | 20.67932 | -105.24771 | 31 ft | 2 kts | 317° |
| 2026-05-06 16:49 | 20.67941 | -105.24780 | 31 ft | 2 kts | 317° |
| 2026-05-06 16:49 | 20.67949 | -105.24788 | 31 ft | 2 kts | 317° |
| 2026-05-06 16:50 | 20.67951 | -105.24790 | 31 ft | 0 kts | 317° |
| 2026-05-06 16:52 | 20.67972 | -105.24810 | 31 ft | 9 kts | 317° |
| 2026-05-06 16:52 | 20.68041 | -105.24821 | 31 ft | 13 kts | 34° |
| 2026-05-06 16:52 | 20.68108 | -105.24750 | 31 ft | 14 kts | 37° |
| 2026-05-06 16:53 | 20.68207 | -105.24708 | 31 ft | 16 kts | 17° |
| 2026-05-06 16:53 | 20.68323 | -105.24670 | 31 ft | 18 kts | 17° |
| 2026-05-06 16:53 | 20.68452 | -105.24628 | 31 ft | 20 kts | 20° |
| 2026-05-06 16:53 | 20.68559 | -105.24524 | 31 ft | 22 kts | 47° |
| 2026-05-06 16:54 | 20.68667 | -105.24401 | 31 ft | 24 kts | 47° |
| 2026-05-06 16:54 | 20.68772 | -105.24281 | 31 ft | 14 kts | 47° |
| 2026-05-06 16:54 | 20.68811 | -105.24256 | 31 ft | 6 kts | 14° |
| 2026-05-06 16:54 | 20.68851 | -105.24268 | 31 ft | 7 kts | 325° |
| 2026-05-06 16:55 | 20.68895 | -105.24309 | 31 ft | 10 kts | 317° |
| 2026-05-06 16:55 | 20.68930 | -105.24354 | 31 ft | 5 kts | 266° |
| 2026-05-06 16:55 | 20.68910 | -105.24384 | 31 ft | 6 kts | 227° |
| 2026-05-06 16:55 | 20.68864 | -105.24438 | 32 ft | 25 kts | 227° |
| 2026-05-06 16:56 | 20.68592 | -105.24750 | 32 ft | 88 kts | 227° |
| 2026-05-06 16:56 | 20.68057 | -105.25364 | 33 ft | 138 kts | 227° |
| 2026-05-06 16:56 | 20.67339 | -105.26198 | 236 ft | 158 kts | 228° |
| 2026-05-06 16:56 | 20.66564 | -105.27058 | 717 ft | 165 kts | 226° |
| 2026-05-06 16:57 | 20.65722 | -105.27963 | 1087 ft | 178 kts | 226° |
| 2026-05-06 16:57 | 20.64841 | -105.28935 | 1712 ft | 183 kts | 228° |
| 2026-05-06 16:57 | 20.63964 | -105.29925 | 2367 ft | 186 kts | 230° |
| 2026-05-06 16:57 | 20.63365 | -105.31159 | 2916 ft | 190 kts | 263° |
| 2026-05-06 16:58 | 20.63561 | -105.32558 | 3387 ft | 200 kts | 300° |
| 2026-05-06 16:58 | 20.64571 | -105.33641 | 3728 ft | 214 kts | 337° |
| 2026-05-06 16:58 | 20.65989 | -105.33930 | 4508 ft | 209 kts | 356° |
| 2026-05-06 16:58 | 20.67449 | -105.34241 | 5146 ft | 216 kts | 346° |
| 2026-05-06 16:59 | 20.68897 | -105.34642 | 5947 ft | 215 kts | 346° |
| 2026-05-06 16:59 | 20.70357 | -105.35038 | 6645 ft | 218 kts | 345° |
| 2026-05-06 16:59 | 20.71838 | -105.35433 | 7306 ft | 221 kts | 345° |
| 2026-05-06 16:59 | 20.73342 | -105.35830 | 7956 ft | 225 kts | 344° |
| 2026-05-06 17:00 | 20.74876 | -105.36232 | 8613 ft | 228 kts | 344° |
| 2026-05-06 17:00 | 20.76429 | -105.36637 | 9277 ft | 232 kts | 343° |
| 2026-05-06 17:00 | 20.78013 | -105.37049 | 9955 ft | 236 kts | 343° |
| 2026-05-06 17:00 | 20.79658 | -105.37477 | 10334 ft | 254 kts | 343° |
| 2026-05-06 17:01 | 20.81443 | -105.37945 | 10692 ft | 273 kts | 344° |
| 2026-05-06 17:01 | 20.83356 | -105.38442 | 11034 ft | 293 kts | 344° |
| 2026-05-06 17:01 | 20.85408 | -105.38971 | 11370 ft | 313 kts | 345° |
| 2026-05-06 17:01 | 20.87601 | -105.39459 | 11749 ft | 331 kts | 353° |
| 2026-05-06 17:02 | 20.89932 | -105.39593 | 12303 ft | 341 kts | 356° |
| 2026-05-06 17:02 | 20.92319 | -105.39720 | 13000 ft | 346 kts | 356° |
| 2026-05-06 17:02 | 20.94747 | -105.39858 | 13685 ft | 353 kts | 356° |
| 2026-05-06 17:02 | 20.97224 | -105.40003 | 14331 ft | 358 kts | 356° |
| 2026-05-06 17:03 | 20.99726 | -105.40152 | 15023 ft | 362 kts | 356° |
| 2026-05-06 17:03 | 21.02238 | -105.40457 | 15672 ft | 365 kts | 343° |
| 2026-05-06 17:03 | 21.04543 | -105.41560 | 16333 ft | 364 kts | 323° |
| 2026-05-06 17:03 | 21.06492 | -105.43279 | 16941 ft | 366 kts | 315° |
| 2026-05-06 17:04 | 21.08400 | -105.45109 | 17588 ft | 370 kts | 314° |
| 2026-05-06 17:04 | 21.10310 | -105.46976 | 18231 ft | 373 kts | 314° |
| 2026-05-06 17:04 | 21.12226 | -105.48871 | 18773 ft | 376 kts | 313° |
| 2026-05-06 17:04 | 21.14139 | -105.50777 | 19344 ft | 378 kts | 313° |
| 2026-05-06 17:05 | 21.16067 | -105.52705 | 19920 ft | 380 kts | 313° |
| 2026-05-06 17:05 | 21.18003 | -105.54643 | 20477 ft | 382 kts | 313° |
| 2026-05-06 17:05 | 21.19946 | -105.56590 | 21027 ft | 384 kts | 313° |
| 2026-05-06 17:05 | 21.21903 | -105.58553 | 21573 ft | 386 kts | 313° |
| 2026-05-06 17:06 | 21.23866 | -105.60522 | 22106 ft | 388 kts | 313° |
| 2026-05-06 17:06 | 21.25841 | -105.62504 | 22633 ft | 390 kts | 313° |
| 2026-05-06 17:06 | 21.27828 | -105.64498 | 23156 ft | 392 kts | 313° |
| 2026-05-06 17:06 | 21.29825 | -105.66504 | 23658 ft | 394 kts | 313° |
| 2026-05-06 17:07 | 21.31826 | -105.68515 | 24053 ft | 397 kts | 313° |
| 2026-05-06 17:07 | 21.33845 | -105.70545 | 24451 ft | 400 kts | 313° |
| 2026-05-06 17:07 | 21.35881 | -105.72592 | 24836 ft | 402 kts | 313° |
| 2026-05-06 17:07 | 21.37952 | -105.74628 | 25230 ft | 407 kts | 317° |
| 2026-05-06 17:08 | 21.40287 | -105.76391 | 25657 ft | 411 kts | 321° |
| 2026-05-06 17:08 | 21.42637 | -105.78146 | 26024 ft | 414 kts | 321° |
| 2026-05-06 17:08 | 21.45011 | -105.79916 | 26397 ft | 417 kts | 321° |
| 2026-05-06 17:08 | 21.47404 | -105.81697 | 26773 ft | 420 kts | 321° |
| 2026-05-06 17:09 | 21.49814 | -105.83491 | 27137 ft | 423 kts | 321° |
| 2026-05-06 17:09 | 21.52231 | -105.85289 | 27498 ft | 425 kts | 320° |
| 2026-05-06 17:09 | 21.54668 | -105.87104 | 27855 ft | 428 kts | 320° |
| 2026-05-06 17:09 | 21.57125 | -105.88934 | 28209 ft | 431 kts | 320° |
| 2026-05-06 17:10 | 21.59594 | -105.90774 | 28559 ft | 433 kts | 320° |
| 2026-05-06 17:10 | 21.62078 | -105.92626 | 28901 ft | 436 kts | 320° |
| 2026-05-06 17:10 | 21.64547 | -105.94468 | 29234 ft | 439 kts | 320° |
| 2026-05-06 17:10 | 21.67062 | -105.96344 | 29570 ft | 441 kts | 320° |
| 2026-05-06 17:11 | 21.69589 | -105.98231 | 29934 ft | 443 kts | 320° |
| 2026-05-06 17:11 | 21.72127 | -106.00125 | 30239 ft | 446 kts | 320° |
| 2026-05-06 17:11 | 21.74678 | -106.02030 | 30541 ft | 447 kts | 320° |
| 2026-05-06 17:11 | 21.77234 | -106.03941 | 30842 ft | 449 kts | 320° |
| 2026-05-06 17:12 | 21.79801 | -106.05861 | 31138 ft | 450 kts | 320° |
| 2026-05-06 17:12 | 21.82375 | -106.07786 | 31428 ft | 452 kts | 320° |
| 2026-05-06 17:12 | 21.84967 | -106.09726 | 31718 ft | 454 kts | 320° |
| 2026-05-06 17:12 | 21.87561 | -106.11668 | 32003 ft | 456 kts | 320° |
| 2026-05-06 17:13 | 21.90169 | -106.13622 | 32282 ft | 457 kts | 320° |
| 2026-05-06 17:13 | 21.92778 | -106.15577 | 32555 ft | 459 kts | 320° |
| 2026-05-06 17:13 | 21.95406 | -106.17548 | 32829 ft | 461 kts | 320° |
| 2026-05-06 17:13 | 21.98039 | -106.19523 | 33123 ft | 462 kts | 320° |
| 2026-05-06 17:14 | 22.00676 | -106.21502 | 33415 ft | 463 kts | 320° |
| 2026-05-06 17:14 | 22.03332 | -106.23496 | 33661 ft | 466 kts | 320° |
| 2026-05-06 17:14 | 22.05997 | -106.25498 | 33923 ft | 467 kts | 320° |
| 2026-05-06 17:14 | 22.08665 | -106.27503 | 34207 ft | 467 kts | 320° |
| 2026-05-06 17:15 | 22.11325 | -106.29504 | 34515 ft | 466 kts | 320° |
| 2026-05-06 17:15 | 22.13979 | -106.31500 | 34823 ft | 465 kts | 320° |
| 2026-05-06 17:15 | 22.16630 | -106.33495 | 35124 ft | 465 kts | 320° |
| 2026-05-06 17:15 | 22.19278 | -106.35489 | 35419 ft | 464 kts | 320° |
| 2026-05-06 17:16 | 22.21925 | -106.37483 | 35700 ft | 464 kts | 320° |
| 2026-05-06 17:16 | 22.24560 | -106.39470 | 35994 ft | 463 kts | 320° |
| 2026-05-06 17:16 | 22.27200 | -106.41461 | 36289 ft | 462 kts | 320° |
| 2026-05-06 17:16 | 22.29834 | -106.43448 | 36570 ft | 461 kts | 320° |
| 2026-05-06 17:17 | 22.32453 | -106.45424 | 36833 ft | 460 kts | 320° |
| 2026-05-06 17:17 | 22.35078 | -106.47407 | 37093 ft | 459 kts | 320° |
| 2026-05-06 17:17 | 22.37695 | -106.49384 | 37345 ft | 459 kts | 319° |
| 2026-05-06 17:17 | 22.40306 | -106.51357 | 37588 ft | 458 kts | 319° |
| 2026-05-06 17:18 | 22.42914 | -106.53330 | 37816 ft | 457 kts | 319° |
| 2026-05-06 17:18 | 22.45522 | -106.55303 | 37983 ft | 457 kts | 319° |
| 2026-05-06 17:18 | 22.48126 | -106.57274 | 37977 ft | 457 kts | 319° |
| 2026-05-06 17:19 | 22.53303 | -106.61195 | 37981 ft | 454 kts | 319° |
| 2026-05-06 17:19 | 22.58476 | -106.65117 | 37974 ft | 454 kts | 319° |
| 2026-05-06 17:20 | 22.63613 | -106.69016 | 37970 ft | 454 kts | 319° |
| 2026-05-06 17:20 | 22.68817 | -106.72968 | 37970 ft | 454 kts | 319° |
| 2026-05-06 17:21 | 22.73938 | -106.76862 | 37973 ft | 453 kts | 319° |
| 2026-05-06 17:21 | 22.79104 | -106.80793 | 37970 ft | 453 kts | 319° |
| 2026-05-06 17:22 | 22.84263 | -106.84723 | 37986 ft | 453 kts | 318° |
| 2026-05-06 17:22 | 22.89418 | -106.88653 | 37969 ft | 452 kts | 318° |
| 2026-05-06 17:23 | 22.94557 | -106.92575 | 37975 ft | 452 kts | 318° |
| 2026-05-06 17:23 | 22.99701 | -106.96505 | 37971 ft | 452 kts | 318° |
| 2026-05-06 17:24 | 23.04847 | -107.00439 | 37974 ft | 452 kts | 318° |
| 2026-05-06 17:24 | 23.09992 | -107.04376 | 37971 ft | 452 kts | 318° |
| 2026-05-06 17:25 | 23.15119 | -107.08303 | 37984 ft | 450 kts | 317° |
| 2026-05-06 17:25 | 23.20230 | -107.12223 | 37973 ft | 449 kts | 317° |
| 2026-05-06 17:26 | 23.25340 | -107.16144 | 37971 ft | 450 kts | 317° |
| 2026-05-06 17:26 | 23.30449 | -107.20068 | 37972 ft | 450 kts | 317° |
| 2026-05-06 17:27 | 23.35548 | -107.23989 | 37974 ft | 450 kts | 317° |
| 2026-05-06 17:27 | 23.39795 | -107.27256 | 37974 ft | 449 kts | 317° |
| 2026-05-06 17:28 | 23.44895 | -107.31185 | 37970 ft | 448 kts | 317° |
| 2026-05-06 17:28 | 23.49973 | -107.35100 | 37976 ft | 448 kts | 317° |
| 2026-05-06 17:29 | 23.55061 | -107.39026 | 37974 ft | 448 kts | 317° |
| 2026-05-06 17:29 | 23.60121 | -107.42934 | 37971 ft | 445 kts | 316° |
| 2026-05-06 17:30 | 23.65175 | -107.46842 | 37979 ft | 445 kts | 316° |
| 2026-05-06 17:30 | 23.70228 | -107.50752 | 37977 ft | 445 kts | 316° |
| 2026-05-06 17:31 | 23.75275 | -107.54662 | 37975 ft | 445 kts | 316° |
| 2026-05-06 17:31 | 23.80323 | -107.58576 | 37972 ft | 445 kts | 316° |
| 2026-05-06 17:32 | 23.85370 | -107.62494 | 37980 ft | 445 kts | 316° |
| 2026-05-06 17:32 | 23.90419 | -107.66416 | 37980 ft | 445 kts | 316° |
| 2026-05-06 17:33 | 23.95461 | -107.70337 | 37974 ft | 445 kts | 316° |
| 2026-05-06 17:33 | 24.00499 | -107.74260 | 37976 ft | 445 kts | 316° |
| 2026-05-06 17:34 | 24.05562 | -107.78205 | 37983 ft | 448 kts | 316° |
| 2026-05-06 17:34 | 24.10639 | -107.82165 | 37969 ft | 448 kts | 316° |
| 2026-05-06 17:35 | 24.15718 | -107.86131 | 37979 ft | 448 kts | 316° |
| 2026-05-06 17:35 | 24.20792 | -107.90096 | 37982 ft | 448 kts | 316° |
| 2026-05-06 17:36 | 24.28407 | -107.96055 | 37986 ft | 449 kts | 315° |
| 2026-05-06 17:36 | 24.33487 | -108.00035 | 37986 ft | 449 kts | 315° |
| 2026-05-06 17:37 | 24.38564 | -108.04017 | 37989 ft | 449 kts | 315° |
| 2026-05-06 17:37 | 24.43649 | -108.08009 | 37980 ft | 449 kts | 315° |
| 2026-05-06 17:38 | 24.48725 | -108.11998 | 37988 ft | 449 kts | 315° |
| 2026-05-06 17:38 | 24.53802 | -108.15993 | 38005 ft | 448 kts | 315° |
| 2026-05-06 17:39 | 24.58852 | -108.19968 | 37985 ft | 446 kts | 315° |
| 2026-05-06 17:39 | 24.63902 | -108.23950 | 37986 ft | 447 kts | 315° |
| 2026-05-06 17:40 | 24.68954 | -108.27936 | 37986 ft | 447 kts | 315° |
| 2026-05-06 17:40 | 24.73970 | -108.31898 | 37983 ft | 447 kts | 315° |
| 2026-05-06 17:41 | 24.79012 | -108.35885 | 37983 ft | 447 kts | 315° |
| 2026-05-06 17:41 | 24.84044 | -108.39867 | 37975 ft | 444 kts | 314° |
| 2026-05-06 17:42 | 24.89058 | -108.43841 | 38006 ft | 444 kts | 314° |
| 2026-05-06 17:42 | 24.94077 | -108.47820 | 37989 ft | 444 kts | 314° |
| 2026-05-06 17:43 | 24.99089 | -108.51800 | 37991 ft | 444 kts | 314° |
| 2026-05-06 17:43 | 25.04104 | -108.55785 | 37977 ft | 444 kts | 314° |
| 2026-05-06 17:44 | 25.09121 | -108.59776 | 37987 ft | 445 kts | 314° |
| 2026-05-06 17:44 | 25.14140 | -108.63772 | 37987 ft | 445 kts | 314° |
| 2026-05-06 17:45 | 25.19147 | -108.67763 | 37981 ft | 445 kts | 314° |
| 2026-05-06 17:45 | 25.24164 | -108.71766 | 37984 ft | 445 kts | 314° |
| 2026-05-06 17:46 | 25.29176 | -108.75773 | 37985 ft | 445 kts | 314° |
| 2026-05-06 17:46 | 25.34187 | -108.79784 | 38013 ft | 445 kts | 313° |
| 2026-05-06 17:47 | 25.39192 | -108.83792 | 37985 ft | 444 kts | 313° |
| 2026-05-06 17:47 | 25.44198 | -108.87806 | 37999 ft | 445 kts | 313° |
| 2026-05-06 17:48 | 25.49209 | -108.91828 | 38005 ft | 445 kts | 313° |
| 2026-05-06 17:48 | 25.54255 | -108.95802 | 38015 ft | 447 kts | 315° |
| 2026-05-06 17:49 | 25.59212 | -108.99842 | 38074 ft | 445 kts | 313° |
| 2026-05-06 17:49 | 25.64168 | -109.03856 | 38018 ft | 442 kts | 313° |
| 2026-05-06 17:50 | 25.69247 | -109.07767 | 38024 ft | 450 kts | 317° |
| 2026-05-06 17:50 | 25.74557 | -109.11441 | 38021 ft | 449 kts | 316° |
| 2026-05-06 17:51 | 25.79830 | -109.15142 | 38023 ft | 449 kts | 316° |
| 2026-05-06 17:51 | 25.85105 | -109.18856 | 38018 ft | 449 kts | 316° |
| 2026-05-06 17:52 | 25.90379 | -109.22572 | 38014 ft | 449 kts | 315° |
| 2026-05-06 17:52 | 25.95657 | -109.26295 | 38011 ft | 450 kts | 315° |
| 2026-05-06 17:53 | 26.00929 | -109.30019 | 38010 ft | 450 kts | 315° |
| 2026-05-06 17:53 | 26.06208 | -109.33750 | 38006 ft | 449 kts | 315° |
| 2026-05-06 17:54 | 26.11494 | -109.37483 | 38007 ft | 450 kts | 316° |
| 2026-05-06 17:54 | 26.16780 | -109.41208 | 38010 ft | 450 kts | 315° |
| 2026-05-06 17:55 | 26.22063 | -109.44936 | 38009 ft | 450 kts | 315° |
| 2026-05-06 17:55 | 26.27355 | -109.48673 | 37992 ft | 450 kts | 315° |
| 2026-05-06 17:56 | 26.32637 | -109.52408 | 38004 ft | 450 kts | 315° |
| 2026-05-06 17:56 | 26.37919 | -109.56147 | 37994 ft | 450 kts | 315° |
| 2026-05-06 17:57 | 26.43197 | -109.59888 | 38007 ft | 450 kts | 315° |
| 2026-05-06 17:57 | 26.48477 | -109.63633 | 38005 ft | 450 kts | 315° |
| 2026-05-06 17:58 | 26.53754 | -109.67381 | 38013 ft | 450 kts | 315° |
| 2026-05-06 17:58 | 26.58996 | -109.71108 | 37999 ft | 450 kts | 315° |
| 2026-05-06 17:59 | 26.64265 | -109.74859 | 37999 ft | 449 kts | 315° |
| 2026-05-06 17:59 | 26.69529 | -109.78611 | 38008 ft | 448 kts | 315° |
| 2026-05-06 18:00 | 26.74780 | -109.82357 | 38012 ft | 447 kts | 315° |
| 2026-05-06 18:00 | 26.80019 | -109.86099 | 38008 ft | 447 kts | 314° |
| 2026-05-06 18:01 | 26.85250 | -109.89840 | 38004 ft | 447 kts | 314° |
| 2026-05-06 18:01 | 26.90482 | -109.93585 | 38004 ft | 446 kts | 314° |
| 2026-05-06 18:02 | 26.95707 | -109.97330 | 37997 ft | 445 kts | 314° |
| 2026-05-06 18:02 | 27.00922 | -110.01071 | 38007 ft | 445 kts | 314° |
| 2026-05-06 18:03 | 27.06134 | -110.04815 | 38000 ft | 445 kts | 314° |
| 2026-05-06 18:03 | 27.11352 | -110.08567 | 37997 ft | 445 kts | 314° |
| 2026-05-06 18:04 | 27.16567 | -110.12321 | 37998 ft | 445 kts | 314° |
| 2026-05-06 18:04 | 27.21778 | -110.16075 | 38010 ft | 443 kts | 314° |
| 2026-05-06 18:05 | 27.26950 | -110.19806 | 38002 ft | 443 kts | 314° |
| 2026-05-06 18:05 | 27.32144 | -110.23556 | 38001 ft | 443 kts | 314° |
| 2026-05-06 18:06 | 27.37331 | -110.27306 | 38001 ft | 443 kts | 314° |
| 2026-05-06 18:06 | 27.42514 | -110.31057 | 37998 ft | 443 kts | 314° |
| 2026-05-06 18:07 | 27.47699 | -110.34813 | 37994 ft | 442 kts | 314° |
| 2026-05-06 18:07 | 27.52860 | -110.38557 | 38001 ft | 442 kts | 314° |
| 2026-05-06 18:08 | 27.58001 | -110.42290 | 37996 ft | 442 kts | 314° |
| 2026-05-06 18:08 | 27.63174 | -110.46051 | 37997 ft | 442 kts | 314° |
| 2026-05-06 18:09 | 27.68345 | -110.49815 | 38048 ft | 442 kts | 313° |
| 2026-05-06 18:09 | 27.73490 | -110.53563 | 37994 ft | 440 kts | 313° |
| 2026-05-06 18:10 | 27.78639 | -110.57320 | 37998 ft | 441 kts | 313° |
| 2026-05-06 18:10 | 27.83789 | -110.61081 | 38016 ft | 441 kts | 313° |
| 2026-05-06 18:11 | 27.88069 | -110.64210 | 38008 ft | 441 kts | 313° |
| 2026-05-06 18:11 | 27.94080 | -110.68610 | 38050 ft | 441 kts | 313° |
| 2026-05-06 18:12 | 27.99215 | -110.72373 | 38012 ft | 439 kts | 313° |
| 2026-05-06 18:12 | 28.04338 | -110.76131 | 38020 ft | 439 kts | 313° |
| 2026-05-06 18:13 | 28.09471 | -110.79899 | 38014 ft | 440 kts | 313° |
| 2026-05-06 18:13 | 28.14603 | -110.83676 | 37998 ft | 440 kts | 313° |
| 2026-05-06 18:14 | 28.18855 | -110.86807 | 38045 ft | 439 kts | 313° |
| 2026-05-06 18:14 | 28.23971 | -110.90577 | 37998 ft | 438 kts | 313° |
| 2026-05-06 18:15 | 28.29085 | -110.94348 | 38006 ft | 439 kts | 313° |
| 2026-05-06 18:15 | 28.35020 | -110.98737 | 38009 ft | 438 kts | 313° |
| 2026-05-06 18:16 | 28.39303 | -111.01908 | 38019 ft | 438 kts | 313° |
| 2026-05-06 18:16 | 28.44409 | -111.05691 | 38049 ft | 438 kts | 313° |
| 2026-05-06 18:17 | 28.49510 | -111.09475 | 38012 ft | 437 kts | 313° |
| 2026-05-06 18:17 | 28.54604 | -111.13259 | 38014 ft | 438 kts | 313° |
| 2026-05-06 18:18 | 28.59706 | -111.17053 | 38015 ft | 439 kts | 313° |
| 2026-05-06 18:18 | 28.64812 | -111.20854 | 38014 ft | 439 kts | 313° |
| 2026-05-06 18:19 | 28.69921 | -111.24662 | 38033 ft | 439 kts | 313° |
| 2026-05-06 18:19 | 28.75016 | -111.28465 | 38016 ft | 438 kts | 313° |
| 2026-05-06 18:20 | 28.80121 | -111.32279 | 38012 ft | 439 kts | 313° |
| 2026-05-06 18:20 | 28.85223 | -111.36095 | 38016 ft | 439 kts | 313° |
| 2026-05-06 18:21 | 28.90333 | -111.39922 | 38016 ft | 439 kts | 313° |
| 2026-05-06 18:21 | 28.95429 | -111.43744 | 38015 ft | 439 kts | 313° |
| 2026-05-06 18:22 | 29.00525 | -111.47570 | 38010 ft | 438 kts | 313° |
| 2026-05-06 18:22 | 29.05619 | -111.51398 | 38008 ft | 438 kts | 313° |
| 2026-05-06 18:23 | 29.10682 | -111.55208 | 38014 ft | 438 kts | 313° |
| 2026-05-06 18:23 | 29.15766 | -111.59039 | 38051 ft | 438 kts | 313° |
| 2026-05-06 18:24 | 29.20854 | -111.62876 | 38007 ft | 437 kts | 312° |
| 2026-05-06 18:24 | 29.25937 | -111.66715 | 38009 ft | 438 kts | 312° |
| 2026-05-06 18:25 | 29.31013 | -111.70554 | 38005 ft | 438 kts | 312° |
| 2026-05-06 18:25 | 29.36091 | -111.74398 | 37998 ft | 437 kts | 312° |
| 2026-05-06 18:26 | 29.41142 | -111.78257 | 38081 ft | 438 kts | 313° |
| 2026-05-06 18:26 | 29.46233 | -111.82093 | 37987 ft | 436 kts | 312° |
| 2026-05-06 18:27 | 29.51303 | -111.85943 | 37996 ft | 438 kts | 312° |
| 2026-05-06 18:27 | 29.56376 | -111.89803 | 38002 ft | 437 kts | 312° |
| 2026-05-06 18:28 | 29.61440 | -111.93659 | 38012 ft | 437 kts | 312° |
| 2026-05-06 18:28 | 29.66513 | -111.97527 | 38025 ft | 438 kts | 312° |
| 2026-05-06 18:29 | 29.71587 | -112.01401 | 38008 ft | 438 kts | 312° |
| 2026-05-06 18:29 | 29.76662 | -112.05279 | 38003 ft | 438 kts | 312° |
| 2026-05-06 18:30 | 29.81725 | -112.09152 | 38011 ft | 438 kts | 312° |
| 2026-05-06 18:30 | 29.86798 | -112.13039 | 38013 ft | 438 kts | 312° |
| 2026-05-06 18:31 | 29.91879 | -112.16935 | 38005 ft | 439 kts | 313° |
| 2026-05-06 18:31 | 29.96960 | -112.20838 | 38013 ft | 439 kts | 313° |
| 2026-05-06 18:32 | 30.02039 | -112.24743 | 38012 ft | 439 kts | 313° |
| 2026-05-06 18:32 | 30.07088 | -112.28629 | 38007 ft | 439 kts | 313° |
| 2026-05-06 18:33 | 30.12163 | -112.32542 | 38041 ft | 439 kts | 313° |
| 2026-05-06 18:33 | 30.17256 | -112.36473 | 38016 ft | 440 kts | 313° |
| 2026-05-06 18:34 | 30.22339 | -112.40400 | 38009 ft | 440 kts | 313° |
| 2026-05-06 18:34 | 30.27423 | -112.44334 | 38017 ft | 440 kts | 313° |
| 2026-05-06 18:35 | 30.32509 | -112.48275 | 38022 ft | 441 kts | 313° |
| 2026-05-06 18:35 | 30.37607 | -112.52229 | 38023 ft | 441 kts | 313° |
| 2026-05-06 18:36 | 30.42700 | -112.56184 | 38016 ft | 441 kts | 313° |
| 2026-05-06 18:36 | 30.47802 | -112.60152 | 38025 ft | 441 kts | 313° |
| 2026-05-06 18:37 | 30.52898 | -112.64121 | 38024 ft | 441 kts | 313° |
| 2026-05-06 18:37 | 30.57994 | -112.68094 | 38054 ft | 442 kts | 314° |
| 2026-05-06 18:38 | 30.63090 | -112.72072 | 38027 ft | 442 kts | 314° |
| 2026-05-06 18:38 | 30.68194 | -112.76062 | 38026 ft | 442 kts | 314° |
| 2026-05-06 18:39 | 30.73300 | -112.80059 | 38038 ft | 443 kts | 314° |
| 2026-05-06 18:40 | 30.80972 | -112.86074 | 38051 ft | 444 kts | 315° |
| 2026-05-06 18:40 | 30.86103 | -112.90103 | 38040 ft | 446 kts | 315° |
| 2026-05-06 18:41 | 30.91244 | -112.94145 | 38037 ft | 446 kts | 315° |
| 2026-05-06 18:41 | 30.96345 | -112.98161 | 38046 ft | 446 kts | 315° |
| 2026-05-06 18:42 | 31.01488 | -113.02216 | 38045 ft | 446 kts | 315° |
| 2026-05-06 18:42 | 31.06627 | -113.06273 | 38045 ft | 447 kts | 316° |
| 2026-05-06 18:43 | 31.11785 | -113.10350 | 38047 ft | 448 kts | 316° |
| 2026-05-06 18:43 | 31.16952 | -113.14441 | 38063 ft | 450 kts | 317° |
| 2026-05-06 18:44 | 31.22128 | -113.18542 | 38058 ft | 450 kts | 317° |
| 2026-05-06 18:44 | 31.27297 | -113.22643 | 38065 ft | 450 kts | 317° |
| 2026-05-06 18:45 | 31.32469 | -113.26752 | 38065 ft | 450 kts | 317° |
| 2026-05-06 18:45 | 31.37149 | -113.31358 | 38050 ft | 425 kts | 297° |
| 2026-05-06 18:46 | 31.40523 | -113.37031 | 38043 ft | 425 kts | 296° |
| 2026-05-06 18:46 | 31.43815 | -113.42769 | 38062 ft | 425 kts | 295° |
| 2026-05-06 18:47 | 31.47080 | -113.48568 | 38043 ft | 430 kts | 297° |
| 2026-05-06 18:47 | 31.50367 | -113.54432 | 38050 ft | 431 kts | 297° |
| 2026-05-06 18:48 | 31.53651 | -113.60302 | 38045 ft | 430 kts | 297° |
| 2026-05-06 18:48 | 31.56930 | -113.66173 | 38045 ft | 431 kts | 296° |
| 2026-05-06 18:49 | 31.60208 | -113.72050 | 38059 ft | 431 kts | 296° |
| 2026-05-06 18:49 | 31.63486 | -113.77937 | 38035 ft | 431 kts | 297° |
| 2026-05-06 18:50 | 31.66779 | -113.83858 | 38039 ft | 435 kts | 298° |
| 2026-05-06 18:50 | 31.70075 | -113.89795 | 38023 ft | 435 kts | 297° |
| 2026-05-06 18:51 | 31.73376 | -113.95750 | 38021 ft | 435 kts | 297° |
| 2026-05-06 18:51 | 31.76652 | -114.01668 | 38007 ft | 435 kts | 297° |
| 2026-05-06 18:52 | 31.79944 | -114.07626 | 38020 ft | 435 kts | 298° |
| 2026-05-06 18:52 | 31.83238 | -114.13595 | 38009 ft | 436 kts | 298° |
| 2026-05-06 18:53 | 31.86544 | -114.19598 | 37992 ft | 438 kts | 298° |
| 2026-05-06 18:53 | 31.89848 | -114.25606 | 37994 ft | 437 kts | 298° |
| 2026-05-06 18:54 | 31.93154 | -114.31625 | 37998 ft | 437 kts | 298° |
| 2026-05-06 18:54 | 31.96452 | -114.37639 | 37994 ft | 437 kts | 298° |
| 2026-05-06 18:55 | 31.99750 | -114.43663 | 38007 ft | 438 kts | 299° |
| 2026-05-06 18:55 | 32.03053 | -114.49708 | 38008 ft | 440 kts | 300° |
| 2026-05-06 18:56 | 32.06364 | -114.55776 | 38018 ft | 441 kts | 300° |
| 2026-05-06 18:56 | 32.09677 | -114.61856 | 38020 ft | 441 kts | 300° |
| 2026-05-06 18:57 | 32.12981 | -114.67931 | 38023 ft | 441 kts | 300° |
| 2026-05-06 18:57 | 32.16291 | -114.74024 | 38024 ft | 441 kts | 299° |
| 2026-05-06 18:58 | 32.19592 | -114.80113 | 38041 ft | 441 kts | 300° |
| 2026-05-06 18:58 | 32.22904 | -114.86231 | 38036 ft | 442 kts | 300° |
| 2026-05-06 18:59 | 32.26211 | -114.92349 | 38020 ft | 442 kts | 300° |
| 2026-05-06 18:59 | 32.29519 | -114.98477 | 38021 ft | 442 kts | 300° |
| 2026-05-06 19:00 | 32.32824 | -115.04610 | 38041 ft | 443 kts | 301° |
| 2026-05-06 19:00 | 32.36115 | -115.10730 | 38048 ft | 444 kts | 301° |
| 2026-05-06 19:01 | 32.39427 | -115.16896 | 38072 ft | 444 kts | 302° |
| 2026-05-06 19:01 | 32.42739 | -115.23069 | 38060 ft | 444 kts | 302° |
| 2026-05-06 19:02 | 32.46048 | -115.29247 | 38067 ft | 444 kts | 302° |
| 2026-05-06 19:02 | 32.49355 | -115.35433 | 38048 ft | 445 kts | 302° |
| 2026-05-06 19:03 | 32.52123 | -115.40619 | 38059 ft | 446 kts | 302° |
| 2026-05-06 19:03 | 32.55416 | -115.46795 | 38053 ft | 446 kts | 303° |
| 2026-05-06 19:04 | 32.58723 | -115.53009 | 38065 ft | 445 kts | 303° |
| 2026-05-06 19:04 | 32.62047 | -115.59267 | 38060 ft | 445 kts | 303° |
| 2026-05-06 19:05 | 32.65319 | -115.65436 | 38082 ft | 445 kts | 303° |
| 2026-05-06 19:05 | 32.68610 | -115.71665 | 38078 ft | 445 kts | 303° |
| 2026-05-06 19:06 | 32.71899 | -115.77897 | 38075 ft | 445 kts | 304° |
| 2026-05-06 19:06 | 32.75187 | -115.84137 | 37808 ft | 445 kts | 304° |
| 2026-05-06 19:06 | 32.76826 | -115.87249 | 37550 ft | 444 kts | 304° |
| 2026-05-06 19:07 | 32.78461 | -115.90359 | 37294 ft | 445 kts | 304° |
| 2026-05-06 19:07 | 32.80096 | -115.93486 | 37041 ft | 446 kts | 304° |
| 2026-05-06 19:07 | 32.81685 | -115.96660 | 36785 ft | 447 kts | 304° |
| 2026-05-06 19:07 | 32.83278 | -115.99840 | 36539 ft | 448 kts | 304° |
| 2026-05-06 19:08 | 32.84878 | -116.03027 | 36301 ft | 449 kts | 304° |
| 2026-05-06 19:08 | 32.86481 | -116.06221 | 36053 ft | 450 kts | 305° |
| 2026-05-06 19:08 | 32.88087 | -116.09425 | 35805 ft | 451 kts | 305° |
| 2026-05-06 19:08 | 32.89692 | -116.12630 | 35540 ft | 452 kts | 306° |
| 2026-05-06 19:09 | 32.91303 | -116.15849 | 35301 ft | 454 kts | 306° |
| 2026-05-06 19:09 | 32.92920 | -116.19083 | 35054 ft | 455 kts | 306° |
| 2026-05-06 19:09 | 32.94539 | -116.22323 | 34821 ft | 456 kts | 307° |
| 2026-05-06 19:09 | 32.96157 | -116.25566 | 34583 ft | 456 kts | 307° |
| 2026-05-06 19:10 | 32.97771 | -116.28802 | 34205 ft | 453 kts | 307° |
| 2026-05-06 19:10 | 32.99392 | -116.32054 | 33078 ft | 461 kts | 307° |
| 2026-05-06 19:10 | 33.01048 | -116.35380 | 31772 ft | 473 kts | 307° |
| 2026-05-06 19:10 | 33.02740 | -116.38784 | 30778 ft | 478 kts | 307° |
| 2026-05-06 19:11 | 33.04418 | -116.42188 | 30010 ft | 479 kts | 304° |
| 2026-05-06 19:11 | 33.05845 | -116.45799 | 29135 ft | 481 kts | 300° |
| 2026-05-06 19:11 | 33.07208 | -116.49412 | 28471 ft | 476 kts | 300° |
| 2026-05-06 19:11 | 33.08557 | -116.53010 | 27776 ft | 472 kts | 300° |
| 2026-05-06 19:12 | 33.09890 | -116.56571 | 27077 ft | 469 kts | 300° |
| 2026-05-06 19:12 | 33.11213 | -116.60111 | 26378 ft | 466 kts | 299° |
| 2026-05-06 19:12 | 33.12523 | -116.63621 | 25741 ft | 462 kts | 299° |
| 2026-05-06 19:12 | 33.13539 | -116.67268 | 24950 ft | 471 kts | 285° |
| 2026-05-06 19:13 | 33.14088 | -116.71109 | 24333 ft | 467 kts | 284° |
| 2026-05-06 19:13 | 33.14660 | -116.74910 | 23705 ft | 464 kts | 284° |
| 2026-05-06 19:13 | 33.15219 | -116.78693 | 22823 ft | 464 kts | 284° |
| 2026-05-06 19:13 | 33.15775 | -116.82481 | 22085 ft | 461 kts | 284° |
| 2026-05-06 19:14 | 33.16322 | -116.86223 | 21462 ft | 456 kts | 284° |
| 2026-05-06 19:14 | 33.16863 | -116.89927 | 20825 ft | 451 kts | 283° |
| 2026-05-06 19:14 | 33.17397 | -116.93600 | 20194 ft | 447 kts | 283° |
| 2026-05-06 19:14 | 33.17918 | -116.97185 | 19582 ft | 443 kts | 283° |
| 2026-05-06 19:15 | 33.18447 | -117.00835 | 18987 ft | 439 kts | 283° |
| 2026-05-06 19:15 | 33.18965 | -117.04415 | 18399 ft | 436 kts | 283° |
| 2026-05-06 19:15 | 33.19472 | -117.07922 | 17743 ft | 432 kts | 283° |
| 2026-05-06 19:15 | 33.19985 | -117.11486 | 17144 ft | 427 kts | 283° |
| 2026-05-06 19:16 | 33.20478 | -117.14915 | 16589 ft | 422 kts | 283° |
| 2026-05-06 19:16 | 33.20971 | -117.18353 | 16043 ft | 418 kts | 283° |
| 2026-05-06 19:16 | 33.21458 | -117.21750 | 15513 ft | 413 kts | 283° |
| 2026-05-06 19:16 | 33.21937 | -117.25107 | 14995 ft | 409 kts | 283° |
| 2026-05-06 19:17 | 33.22413 | -117.28439 | 14465 ft | 405 kts | 283° |
| 2026-05-06 19:17 | 33.22888 | -117.31730 | 13994 ft | 400 kts | 283° |
| 2026-05-06 19:17 | 33.23394 | -117.34967 | 13700 ft | 390 kts | 284° |
| 2026-05-06 19:17 | 33.23883 | -117.38097 | 13540 ft | 377 kts | 284° |
| 2026-05-06 19:18 | 33.24355 | -117.41139 | 13351 ft | 370 kts | 284° |
| 2026-05-06 19:18 | 33.24824 | -117.44167 | 13159 ft | 371 kts | 283° |
| 2026-05-06 19:18 | 33.25290 | -117.47186 | 12950 ft | 370 kts | 283° |
| 2026-05-06 19:18 | 33.25756 | -117.50201 | 12771 ft | 368 kts | 283° |
| 2026-05-06 19:19 | 33.26367 | -117.53149 | 12520 ft | 362 kts | 296° |
| 2026-05-06 19:19 | 33.27604 | -117.55713 | 12241 ft | 354 kts | 306° |
| 2026-05-06 19:19 | 33.28905 | -117.58176 | 12026 ft | 345 kts | 306° |
| 2026-05-06 19:19 | 33.30176 | -117.60563 | 11828 ft | 336 kts | 306° |
| 2026-05-06 19:20 | 33.31418 | -117.62880 | 11619 ft | 327 kts | 306° |
| 2026-05-06 19:20 | 33.32632 | -117.65142 | 11439 ft | 318 kts | 306° |
| 2026-05-06 19:20 | 33.33814 | -117.67340 | 11251 ft | 310 kts | 306° |
| 2026-05-06 19:20 | 33.34962 | -117.69478 | 11074 ft | 302 kts | 306° |
| 2026-05-06 19:21 | 33.36084 | -117.71566 | 10897 ft | 294 kts | 306° |
| 2026-05-06 19:21 | 33.37177 | -117.73602 | 10733 ft | 287 kts | 306° |
| 2026-05-06 19:21 | 33.38241 | -117.75585 | 10564 ft | 280 kts | 306° |
| 2026-05-06 19:21 | 33.39284 | -117.77530 | 10405 ft | 278 kts | 306° |
| 2026-05-06 19:22 | 33.40329 | -117.79479 | 10246 ft | 279 kts | 306° |
| 2026-05-06 19:22 | 33.41373 | -117.81429 | 10085 ft | 278 kts | 306° |
| 2026-05-06 19:22 | 33.42417 | -117.83378 | 9901 ft | 278 kts | 306° |
| 2026-05-06 19:22 | 33.43455 | -117.85317 | 9718 ft | 277 kts | 306° |
| 2026-05-06 19:23 | 33.44493 | -117.87258 | 9550 ft | 276 kts | 306° |
| 2026-05-06 19:23 | 33.45524 | -117.89186 | 9403 ft | 275 kts | 306° |
| 2026-05-06 19:23 | 33.46552 | -117.91109 | 9247 ft | 274 kts | 306° |
| 2026-05-06 19:23 | 33.47736 | -117.92861 | 9056 ft | 268 kts | 325° |
| 2026-05-06 19:24 | 33.49371 | -117.93861 | 8901 ft | 263 kts | 341° |
| 2026-05-06 19:24 | 33.51083 | -117.94654 | 8758 ft | 265 kts | 341° |
| 2026-05-06 19:24 | 33.52803 | -117.95435 | 8617 ft | 264 kts | 341° |
| 2026-05-06 19:24 | 33.54523 | -117.96203 | 8463 ft | 263 kts | 341° |
| 2026-05-06 19:25 | 33.56240 | -117.96962 | 8311 ft | 263 kts | 341° |
| 2026-05-06 19:25 | 33.57952 | -117.97715 | 8152 ft | 262 kts | 342° |
| 2026-05-06 19:25 | 33.59659 | -117.98461 | 8010 ft | 262 kts | 342° |
| 2026-05-06 19:25 | 33.61371 | -117.99208 | 7858 ft | 261 kts | 341° |
| 2026-05-06 19:26 | 33.63094 | -117.99896 | 7688 ft | 261 kts | 345° |
| 2026-05-06 19:26 | 33.64828 | -118.00525 | 7509 ft | 260 kts | 345° |
| 2026-05-06 19:26 | 33.66559 | -118.01161 | 7358 ft | 260 kts | 344° |
| 2026-05-06 19:26 | 33.68291 | -118.01800 | 7196 ft | 260 kts | 344° |
| 2026-05-06 19:27 | 33.70016 | -118.02439 | 7040 ft | 259 kts | 345° |
| 2026-05-06 19:27 | 33.71740 | -118.03068 | 6998 ft | 259 kts | 345° |
| 2026-05-06 19:27 | 33.73461 | -118.03696 | 6990 ft | 259 kts | 345° |
| 2026-05-06 19:27 | 33.75184 | -118.04325 | 6946 ft | 256 kts | 345° |
| 2026-05-06 19:28 | 33.76822 | -118.04925 | 6961 ft | 243 kts | 345° |
| 2026-05-06 19:28 | 33.78390 | -118.05516 | 6933 ft | 231 kts | 341° |
| 2026-05-06 19:28 | 33.79864 | -118.06225 | 6733 ft | 227 kts | 340° |
| 2026-05-06 19:28 | 33.81332 | -118.06936 | 6458 ft | 227 kts | 339° |
| 2026-05-06 19:29 | 33.82796 | -118.07639 | 6181 ft | 226 kts | 339° |
| 2026-05-06 19:29 | 33.84248 | -118.08332 | 5939 ft | 224 kts | 339° |
| 2026-05-06 19:29 | 33.85696 | -118.09021 | 5642 ft | 224 kts | 340° |
| 2026-05-06 19:29 | 33.87145 | -118.09710 | 5371 ft | 223 kts | 340° |
| 2026-05-06 19:30 | 33.88577 | -118.10387 | 5151 ft | 216 kts | 341° |
| 2026-05-06 19:30 | 33.90021 | -118.10697 | 4883 ft | 209 kts | 356° |
| 2026-05-06 19:30 | 33.91436 | -118.10803 | 4631 ft | 197 kts | 357° |
| 2026-05-06 19:30 | 33.92737 | -118.11105 | 4356 ft | 188 kts | 333° |
| 2026-05-06 19:31 | 33.93803 | -118.11963 | 4131 ft | 184 kts | 326° |
| 2026-05-06 19:31 | 33.94839 | -118.12883 | 3944 ft | 186 kts | 323° |
| 2026-05-06 19:31 | 33.95866 | -118.15670 | 3634 ft | 190 kts | 278° |
| 2026-05-06 19:32 | 33.95886 | -118.17268 | 3513 ft | 192 kts | 268° |
| 2026-05-06 19:32 | 33.95734 | -118.18856 | 3271 ft | 188 kts | 263° |
| 2026-05-06 19:32 | 33.95562 | -118.20389 | 3023 ft | 181 kts | 263° |
| 2026-05-06 19:32 | 33.95407 | -118.21872 | 2788 ft | 176 kts | 262° |
| 2026-05-06 19:33 | 33.95258 | -118.23327 | 2557 ft | 174 kts | 262° |
| 2026-05-06 19:33 | 33.95112 | -118.24759 | 2341 ft | 171 kts | 261° |
| 2026-05-06 19:33 | 33.94968 | -118.26175 | 2105 ft | 171 kts | 262° |
| 2026-05-06 19:33 | 33.94823 | -118.27594 | 1882 ft | 171 kts | 261° |
| 2026-05-06 19:34 | 33.94683 | -118.28982 | 1656 ft | 162 kts | 262° |
| 2026-05-06 19:34 | 33.94548 | -118.30295 | 1446 ft | 153 kts | 262° |
| 2026-05-06 19:34 | 33.94425 | -118.31527 | 1283 ft | 144 kts | 261° |
| 2026-05-06 19:34 | 33.94309 | -118.32685 | 1080 ft | 138 kts | 261° |
| 2026-05-06 19:35 | 33.94189 | -118.33832 | 885 ft | 138 kts | 262° |
| 2026-05-06 19:35 | 33.94068 | -118.34961 | 690 ft | 135 kts | 262° |
| 2026-05-06 19:35 | 33.93958 | -118.36076 | 513 ft | 133 kts | 263° |
| 2026-05-06 19:35 | 33.93850 | -118.37175 | 340 ft | 133 kts | 262° |
| 2026-05-06 19:36 | 33.93740 | -118.38275 | 173 ft | 130 kts | 262° |
| 2026-05-06 19:36 | 33.93636 | -118.39264 | 125 ft | 97 kts | 262° |
| 2026-05-06 19:36 | 33.93577 | -118.39844 | 125 ft | 45 kts | 263° |
| 2026-05-06 19:36 | 33.93559 | -118.40097 | 128 ft | 26 kts | 271° |
| 2026-05-06 19:37 | 33.93602 | -118.40296 | 125 ft | 19 kts | 292° |
| 2026-05-06 19:37 | 33.93628 | -118.40409 | 128 ft | 12 kts | 270° |
| 2026-05-06 19:37 | 33.93618 | -118.40516 | 128 ft | 14 kts | 262° |
| 2026-05-06 19:37 | 33.93608 | -118.40601 | 124 ft | 16 kts | 262° |
| 2026-05-06 19:38 | 33.93590 | -118.40789 | 128 ft | 15 kts | 265° |
| 2026-05-06 19:38 | 33.93644 | -118.40892 | 124 ft | 16 kts | 344° |
| 2026-05-06 19:38 | 33.93768 | -118.40911 | 127 ft | 19 kts | 353° |
| 2026-05-06 19:38 | 33.93857 | -118.40918 | 125 ft | 6 kts | 22° |
| 2026-05-06 19:39 | 33.93871 | -118.40869 | 127 ft | 8 kts | 82° |
| 2026-05-06 19:39 | 33.93880 | -118.40791 | 128 ft | 11 kts | 82° |
| 2026-05-06 19:39 | 33.93891 | -118.40689 | 128 ft | 14 kts | 83° |
| 2026-05-06 19:39 | 33.93903 | -118.40563 | 126 ft | 16 kts | 83° |
| 2026-05-06 19:40 | 33.93918 | -118.40415 | 128 ft | 19 kts | 82° |
| 2026-05-06 19:40 | 33.93933 | -118.40278 | 128 ft | 17 kts | 84° |
| 2026-05-06 19:40 | 33.93947 | -118.40127 | 128 ft | 15 kts | 83° |
| 2026-05-06 19:40 | 33.93972 | -118.40065 | 126 ft | 7 kts | 23° |
| 2026-05-06 19:41 | 33.94032 | -118.40067 | 126 ft | 10 kts | 354° |
| 2026-05-06 19:41 | 33.94092 | -118.40077 | 125 ft | 3 kts | 347° |
| 2026-05-06 19:41 | 33.94102 | -118.40091 | 127 ft | 3 kts | 294° |
| 2026-05-06 19:41 | 33.94102 | -118.40119 | 128 ft | 3 kts | 265° |
| 2026-05-06 19:42 | 33.94101 | -118.40134 | 126 ft | 0 kts | 266° |